Terminal Aerodrome Forecast
Issued by NWS

Home | Current Version | Previous Version | Text Only | Print | Product List | Glossary On
Versions: 1 2 3 4 5 6 7 8 9 10 11 12 13 14 15 16 17 18 19 20 21 22 23
000
FTAK31 PANC 020529
TAFATK
TAF
PATK 020529Z 0206/0306 VRB03KT P6SM -RA OVC060
     FM021000 18005KT P6SM -RA BKN025 OVC060
     FM022000 22004KT P6SM -RA OVC035=

USA.gov is the U.S. government's official web portal to all federal, state and local government web resources and services.